createdAt,value
2023-03-21T00:01:45.126Z,9.30
2023-03-21T00:04:12.006Z,9.34
2023-03-21T00:06:38.643Z,9.38
2023-03-21T00:09:05.233Z,9.41
2023-03-21T00:11:31.830Z,9.39
2023-03-21T00:14:02.343Z,9.24
2023-03-21T00:16:33.621Z,9.19
2023-03-21T00:19:06.827Z,9.13
2023-03-21T00:21:59.221Z,9.12
2023-03-21T00:24:24.767Z,9.07
2023-03-21T00:26:51.595Z,9.15
2023-03-21T00:29:18.175Z,9.21
2023-03-21T00:31:44.795Z,9.29
2023-03-21T00:36:43.269Z,9.27
2023-03-21T00:39:09.970Z,9.27
2023-03-21T00:41:42.865Z,9.23
2023-03-21T00:44:13.722Z,9.17
2023-03-21T00:46:47.308Z,9.20
2023-03-21T00:49:20.627Z,9.07
2023-03-21T00:51:51.103Z,8.98
2023-03-21T00:54:18.048Z,8.93
2023-03-21T00:56:44.609Z,9.02
2023-03-21T00:59:11.129Z,9.05
2023-03-21T01:01:37.683Z,9.06
2023-03-21T01:04:05.235Z,9.17
2023-03-21T01:06:39.368Z,9.13
2023-03-21T01:09:08.138Z,9.12
2023-03-21T01:11:35.374Z,9.16
2023-03-21T01:14:18.537Z,9.20
2023-03-21T01:16:48.574Z,9.19
2023-03-21T01:19:50.272Z,9.20
2023-03-21T01:22:06.369Z,9.21
2023-03-21T01:24:35.579Z,9.29
2023-03-21T01:27:04.234Z,9.26
2023-03-21T01:29:30.662Z,9.27
2023-03-21T01:31:57.121Z,9.24
2023-03-21T01:34:23.647Z,9.16
2023-03-21T01:36:50.139Z,9.07
2023-03-21T01:39:16.681Z,9.07
2023-03-21T01:41:44.718Z,9.12
2023-03-21T01:44:19.381Z,9.14
2023-03-21T01:47:07.312Z,9.18
2023-03-21T01:49:45.773Z,9.18
2023-03-21T01:52:29.864Z,9.13
2023-03-21T01:55:04.981Z,9.18
2023-03-21T01:57:47.256Z,9.12
2023-03-21T02:00:26.612Z,9.07
2023-03-21T02:03:06.153Z,9.12
2023-03-21T02:05:59.076Z,9.12
2023-03-21T02:08:38.379Z,9.15
2023-03-21T02:11:07.638Z,9.27
2023-03-21T02:13:35.534Z,9.26
2023-03-21T02:16:26.215Z,9.16
2023-03-21T02:19:39.328Z,9.09
2023-03-21T02:22:43.126Z,9.04
2023-03-21T02:25:34.348Z,9.00
2023-03-21T02:28:21.043Z,8.81
2023-03-21T02:31:41.966Z,8.73
2023-03-21T02:34:50.351Z,8.84
2023-03-21T02:37:38.299Z,8.89
2023-03-21T02:40:36.791Z,9.03
2023-03-21T02:43:41.483Z,9.05
2023-03-21T02:46:43.897Z,8.92
2023-03-21T02:49:34.507Z,8.98
2023-03-21T02:52:15.498Z,9.05
2023-03-21T02:54:49.567Z,8.98
2023-03-21T02:57:22.016Z,8.96
2023-03-21T02:59:56.839Z,9.11
2023-03-21T03:02:30.794Z,9.17
2023-03-21T03:04:58.793Z,9.26
2023-03-21T03:08:08.792Z,9.24
2023-03-21T03:11:18.061Z,9.19
2023-03-21T03:14:38.516Z,9.16
2023-03-21T03:17:19.625Z,8.69
2023-03-21T03:20:47.062Z,8.71
2023-03-21T03:23:28.010Z,8.79
2023-03-21T03:26:28.130Z,8.66
2023-03-21T03:29:02.431Z,8.77
2023-03-21T03:31:39.570Z,8.91
2023-03-21T03:34:11.986Z,9.07
2023-03-21T03:36:47.496Z,9.11
2023-03-21T03:39:16.348Z,9.21
2023-03-21T03:42:12.182Z,9.22
2023-03-21T03:44:41.920Z,9.20
2023-03-21T03:47:31.946Z,9.02
2023-03-21T03:50:24.463Z,8.78
2023-03-21T03:53:01.238Z,8.70
2023-03-21T03:55:34.410Z,8.71
2023-03-21T03:58:03.269Z,8.84
2023-03-21T04:00:34.902Z,8.88
2023-03-21T04:03:01.575Z,8.99
2023-03-21T04:05:28.148Z,9.05
2023-03-21T04:07:54.657Z,9.01
2023-03-21T04:10:22.590Z,8.82
2023-03-21T04:12:49.721Z,8.72
2023-03-21T04:15:17.114Z,8.68
2023-03-21T04:17:45.358Z,8.69
2023-03-21T04:20:18.703Z,8.73
2023-03-21T04:22:51.141Z,8.63
2023-03-21T04:25:30.799Z,8.61
2023-03-21T04:27:59.165Z,8.57
2023-03-21T04:30:25.816Z,8.62
2023-03-21T04:32:56.937Z,8.55
2023-03-21T04:35:24.799Z,8.39
2023-03-21T04:37:51.463Z,8.38
2023-03-21T04:40:18.728Z,8.29
2023-03-21T04:42:47.506Z,8.19
2023-03-21T04:45:16.220Z,8.16
2023-03-21T04:47:43.279Z,8.18
2023-03-21T04:50:11.531Z,8.18
2023-03-21T04:52:38.427Z,8.00
2023-03-21T04:55:05.729Z,7.87
2023-03-21T04:57:32.183Z,7.87
2023-03-21T04:59:58.650Z,7.89
2023-03-21T05:02:25.612Z,7.91
2023-03-21T05:04:52.331Z,7.77
2023-03-21T05:07:18.826Z,7.76
2023-03-21T05:09:45.564Z,7.59
2023-03-21T05:12:12.111Z,7.48
2023-03-21T05:14:38.576Z,7.46
2023-03-21T05:17:05.351Z,7.51
2023-03-21T05:19:35.694Z,7.43
2023-03-21T05:22:06.149Z,7.26
2023-03-21T05:24:33.084Z,7.19
2023-03-21T05:27:04.039Z,7.05
2023-03-21T05:29:32.686Z,7.07
2023-03-21T05:32:01.022Z,7.18
2023-03-21T05:34:28.814Z,7.26
2023-03-21T05:36:55.559Z,7.06
2023-03-21T05:39:22.528Z,7.04
2023-03-21T05:41:49.311Z,7.14
2023-03-21T05:44:16.052Z,7.07
2023-03-21T05:46:43.281Z,7.16
2023-03-21T05:49:11.864Z,7.12
2023-03-21T05:51:38.470Z,7.15
2023-03-21T05:54:06.269Z,7.25
2023-03-21T05:56:32.935Z,7.22
2023-03-21T05:58:59.399Z,7.18
2023-03-21T06:01:25.924Z,7.20
2023-03-21T06:03:52.425Z,7.23
2023-03-21T06:06:18.914Z,7.23
2023-03-21T06:08:45.525Z,7.35
2023-03-21T06:11:36.290Z,7.51
2023-03-21T06:14:02.949Z,7.76
2023-03-21T06:16:29.836Z,7.89
2023-03-21T06:18:56.592Z,8.00
2023-03-21T06:21:24.200Z,8.10
2023-03-21T06:23:52.420Z,8.01
2023-03-21T06:26:23.159Z,7.92
2023-03-21T06:28:50.752Z,8.02
2023-03-21T06:31:17.536Z,8.10
2023-03-21T06:33:44.167Z,8.23
2023-03-21T06:36:11.263Z,8.32
2023-03-21T06:38:38.129Z,8.36
2023-03-21T06:41:07.476Z,8.50
2023-03-21T06:43:34.799Z,8.67
2023-03-21T06:46:01.675Z,8.80
2023-03-21T06:48:28.659Z,8.85
2023-03-21T06:50:56.272Z,8.88
2023-03-21T06:53:27.282Z,8.91
2023-03-21T06:55:54.604Z,8.95
2023-03-21T06:58:22.806Z,8.90
2023-03-21T07:00:49.699Z,8.91
2023-03-21T07:03:16.877Z,9.05
2023-03-21T07:05:43.470Z,9.12
2023-03-21T07:08:12.178Z,9.20
2023-03-21T07:10:40.836Z,9.31
2023-03-21T07:13:07.719Z,9.40
2023-03-21T07:15:38.052Z,9.48
2023-03-21T07:18:05.823Z,9.56
2023-03-21T07:20:32.764Z,9.55
2023-03-21T07:22:59.600Z,9.56
2023-03-21T07:25:27.011Z,9.59
2023-03-21T07:27:53.769Z,9.69
2023-03-21T07:30:20.469Z,9.85
2023-03-21T07:32:47.590Z,9.94
2023-03-21T07:35:16.926Z,9.97
2023-03-21T07:37:44.225Z,10.03
2023-03-21T07:40:13.291Z,10.07
2023-03-21T07:42:41.493Z,10.13
2023-03-21T07:45:10.374Z,10.15
2023-03-21T07:47:36.834Z,10.21
2023-03-21T07:50:04.578Z,10.31
2023-03-21T07:52:33.211Z,10.36
2023-03-21T07:54:59.752Z,10.44
2023-03-21T07:57:26.415Z,10.35
2023-03-21T07:59:53.050Z,10.41
2023-03-21T08:02:19.606Z,10.52
2023-03-21T08:04:46.658Z,10.56
2023-03-21T08:07:13.497Z,10.64
2023-03-21T08:09:40.398Z,10.73
2023-03-21T08:12:08.554Z,10.77
2023-03-21T08:14:36.831Z,10.83
2023-03-21T08:17:05.178Z,10.89
2023-03-21T08:19:32.270Z,10.94
2023-03-21T08:22:02.276Z,11.03
2023-03-21T08:24:29.996Z,11.07
2023-03-21T08:26:57.156Z,11.11
2023-03-21T08:29:25.000Z,11.14
2023-03-21T08:31:51.617Z,11.13
2023-03-21T08:34:19.402Z,11.13
2023-03-21T08:36:47.028Z,11.13
2023-03-21T08:39:13.648Z,11.20
2023-03-21T08:41:40.272Z,11.23
2023-03-21T08:44:06.961Z,11.22
2023-03-21T08:46:33.907Z,11.27
2023-03-21T08:49:00.538Z,11.26
2023-03-21T08:51:27.180Z,11.34
2023-03-21T08:53:53.710Z,11.42
2023-03-21T08:56:20.236Z,11.49
2023-03-21T08:58:47.285Z,11.48
2023-03-21T09:01:15.753Z,11.34
2023-03-21T09:03:43.219Z,11.44
2023-03-21T09:06:14.106Z,11.54
2023-03-21T09:08:41.923Z,11.53
2023-03-21T09:11:10.404Z,11.55
2023-03-21T09:13:37.022Z,11.60
2023-03-21T09:16:05.135Z,11.67
2023-03-21T09:18:57.949Z,11.45
2023-03-21T09:21:27.331Z,11.26
2023-03-21T09:23:56.446Z,11.25
2023-03-21T09:26:24.973Z,11.37
2023-03-21T09:28:53.010Z,11.37
2023-03-21T09:31:23.304Z,11.48
2023-03-21T09:33:51.522Z,11.54
2023-03-21T09:36:20.835Z,11.60
2023-03-21T09:38:49.252Z,11.70
2023-03-21T09:41:45.705Z,11.48
2023-03-21T09:44:32.097Z,11.14
2023-03-21T09:47:29.391Z,11.21
2023-03-21T09:50:13.584Z,11.28
2023-03-21T09:52:58.335Z,11.38
2023-03-21T09:55:34.672Z,11.50
2023-03-21T09:58:21.080Z,11.48
2023-03-21T10:00:56.487Z,11.52
2023-03-21T10:03:35.034Z,11.58
2023-03-21T10:06:11.680Z,11.65
2023-03-21T10:08:41.862Z,11.27
2023-03-21T10:11:27.884Z,11.45
2023-03-21T10:14:03.280Z,11.57
2023-03-21T10:16:41.423Z,11.66
2023-03-21T10:19:14.868Z,11.75
2023-03-21T10:22:04.389Z,11.72
2023-03-21T10:24:34.538Z,11.73
2023-03-21T10:27:04.231Z,11.86
2023-03-21T10:29:43.505Z,11.97
2023-03-21T10:32:15.230Z,12.05
2023-03-21T10:34:50.579Z,12.09
2023-03-21T10:37:17.577Z,12.22
2023-03-21T10:39:51.475Z,12.23
2023-03-21T10:42:26.854Z,12.18
2023-03-21T10:44:57.471Z,12.23
2023-03-21T10:47:34.652Z,12.06
2023-03-21T10:50:08.895Z,12.08
2023-03-21T10:52:47.475Z,12.05
2023-03-21T10:55:31.995Z,12.08
2023-03-21T10:58:18.784Z,11.99
2023-03-21T11:00:48.043Z,12.03
2023-03-21T11:03:31.149Z,12.02
2023-03-21T11:06:14.069Z,12.01
2023-03-21T11:08:56.268Z,12.02
2023-03-21T11:11:40.431Z,11.85
2023-03-21T11:14:32.864Z,11.85
2023-03-21T11:16:59.588Z,11.90
2023-03-21T11:19:32.301Z,11.91
2023-03-21T11:22:06.688Z,12.02
2023-03-21T11:24:35.915Z,12.14
2023-03-21T11:27:08.099Z,12.15
2023-03-21T11:29:40.417Z,12.18
2023-03-21T11:32:37.961Z,12.09
2023-03-21T11:35:28.028Z,11.83
2023-03-21T11:37:56.726Z,12.07
2023-03-21T11:40:29.250Z,12.11
2023-03-21T11:43:31.882Z,12.03
2023-03-21T11:46:09.346Z,12.01
2023-03-21T11:48:42.549Z,12.03
2023-03-21T11:51:46.534Z,12.05
2023-03-21T11:54:25.894Z,12.03
2023-03-21T11:57:04.332Z,12.03
2023-03-21T12:00:03.109Z,12.04
2023-03-21T12:02:55.650Z,12.05
2023-03-21T12:05:31.741Z,11.98
2023-03-21T12:08:20.578Z,12.03
2023-03-21T12:10:57.488Z,12.11
2023-03-21T12:14:04.476Z,12.04
2023-03-21T12:17:01.315Z,12.07
2023-03-21T12:19:46.509Z,11.93
2023-03-21T12:22:27.780Z,11.89
2023-03-21T12:24:57.060Z,11.98
2023-03-21T12:28:15.295Z,11.94
2023-03-21T12:31:10.858Z,12.03
2023-03-21T12:33:52.722Z,12.13
2023-03-21T12:36:59.489Z,12.03
2023-03-21T12:39:36.401Z,12.05
2023-03-21T12:42:43.502Z,12.01
2023-03-21T12:45:19.560Z,12.04
2023-03-21T12:47:56.066Z,12.01
2023-03-21T12:50:32.705Z,12.11
2023-03-21T12:53:09.539Z,11.86
2023-03-21T12:55:36.595Z,12.14
2023-03-21T12:58:11.672Z,12.31
2023-03-21T13:00:45.547Z,12.30
2023-03-21T13:03:30.558Z,12.35
2023-03-21T13:06:09.579Z,12.42
2023-03-21T13:08:44.267Z,12.38
2023-03-21T13:11:19.455Z,12.43
2023-03-21T13:13:53.646Z,12.48
2023-03-21T13:16:27.600Z,12.50
2023-03-21T13:19:22.688Z,12.55
2023-03-21T13:22:05.621Z,12.52
2023-03-21T13:24:31.977Z,12.51
2023-03-21T13:27:24.556Z,12.47
2023-03-21T13:29:58.684Z,12.44
2023-03-21T13:32:43.989Z,12.21
2023-03-21T13:35:27.633Z,12.26
2023-03-21T13:38:03.632Z,12.13
2023-03-21T13:40:51.744Z,12.01
2023-03-21T13:44:08.066Z,12.01
2023-03-21T13:46:54.850Z,12.05
2023-03-21T13:49:34.631Z,12.03
2023-03-21T13:52:26.085Z,12.12
2023-03-21T13:54:56.667Z,12.12
2023-03-21T13:57:31.967Z,12.13
2023-03-21T14:00:18.849Z,12.04
2023-03-21T14:03:14.065Z,11.90
2023-03-21T14:05:41.723Z,12.02
2023-03-21T14:08:27.890Z,12.11
2023-03-21T14:11:09.857Z,11.96
2023-03-21T14:13:48.429Z,12.11
2023-03-21T14:16:20.388Z,12.07
2023-03-21T14:19:02.139Z,11.91
2023-03-21T14:21:33.981Z,11.94
2023-03-21T14:24:07.965Z,11.97
2023-03-21T14:26:43.734Z,11.96
2023-03-21T14:29:26.122Z,11.97
2023-03-21T14:31:56.313Z,11.99
2023-03-21T14:34:27.112Z,11.98
2023-03-21T14:37:00.946Z,12.03
2023-03-21T14:39:32.306Z,12.02
2023-03-21T14:42:08.280Z,11.97
2023-03-21T14:44:54.995Z,11.96
2023-03-21T14:47:29.266Z,12.04
2023-03-21T14:49:58.057Z,12.19
2023-03-21T14:52:34.039Z,12.13
2023-03-21T14:55:11.686Z,12.14
2023-03-21T14:57:38.239Z,12.25
2023-03-21T15:00:12.942Z,12.22
2023-03-21T15:02:42.779Z,12.23
2023-03-21T15:05:26.141Z,12.19
2023-03-21T15:07:58.157Z,12.29
2023-03-21T15:10:29.793Z,12.37
2023-03-21T15:13:12.849Z,12.40
2023-03-21T15:15:41.238Z,12.53
2023-03-21T15:18:11.024Z,12.55
2023-03-21T15:20:39.500Z,12.48
2023-03-21T15:23:35.795Z,12.36
2023-03-21T15:26:05.188Z,12.47
2023-03-21T15:28:34.921Z,12.53
2023-03-21T15:31:02.470Z,12.56
2023-03-21T15:33:28.997Z,12.56
2023-03-21T15:35:58.409Z,12.55
2023-03-21T15:38:41.137Z,12.56
2023-03-21T15:41:19.699Z,12.50
2023-03-21T15:44:07.815Z,12.45
2023-03-21T15:46:51.495Z,12.49
2023-03-21T15:49:28.168Z,12.56
2023-03-21T15:51:57.776Z,12.57
2023-03-21T15:54:32.369Z,12.64
2023-03-21T15:57:04.823Z,12.64
2023-03-21T15:59:40.564Z,12.63
2023-03-21T16:02:19.065Z,12.56
2023-03-21T16:05:21.731Z,12.54
2023-03-21T16:07:48.700Z,12.54
2023-03-21T16:10:38.875Z,12.46
2023-03-21T16:13:06.522Z,12.51
2023-03-21T16:15:33.282Z,12.52
2023-03-21T16:18:04.085Z,12.48
2023-03-21T16:20:44.498Z,12.41
2023-03-21T16:23:13.586Z,12.49
2023-03-21T16:25:43.687Z,12.43
2023-03-21T16:28:16.751Z,12.42
2023-03-21T16:30:44.296Z,12.41
2023-03-21T16:33:12.863Z,12.42
2023-03-21T16:35:40.656Z,12.40
2023-03-21T16:38:07.457Z,12.41
2023-03-21T16:40:39.365Z,12.42
2023-03-21T16:43:06.500Z,12.51
2023-03-21T16:45:33.257Z,12.50
2023-03-21T16:48:00.613Z,12.58
2023-03-21T16:50:42.182Z,12.51
2023-03-21T16:53:09.337Z,12.53
2023-03-21T16:55:37.556Z,12.49
2023-03-21T16:58:05.273Z,12.40
2023-03-21T17:00:31.947Z,12.29
2023-03-21T17:03:13.634Z,12.13
2023-03-21T17:05:40.404Z,12.13
2023-03-21T17:08:07.065Z,12.16
2023-03-21T17:10:33.676Z,12.14
2023-03-21T17:13:00.211Z,12.04
2023-03-21T17:15:26.976Z,12.04
2023-03-21T17:17:55.499Z,11.96
2023-03-21T17:20:31.575Z,11.85
2023-03-21T17:22:59.023Z,11.74
2023-03-21T17:25:26.155Z,11.64
2023-03-21T17:27:54.010Z,11.56
2023-03-21T17:30:30.895Z,11.46
2023-03-21T17:32:58.655Z,11.38
2023-03-21T17:35:26.209Z,11.32
2023-03-21T17:37:54.021Z,11.28
2023-03-21T17:40:26.731Z,11.22
2023-03-21T17:42:53.813Z,11.22
2023-03-21T17:45:20.967Z,11.17
2023-03-21T17:47:47.562Z,11.05
2023-03-21T17:50:21.985Z,10.91
2023-03-21T17:52:50.848Z,10.81
2023-03-21T17:55:20.937Z,10.74
2023-03-21T17:57:48.905Z,10.68
2023-03-21T18:00:26.307Z,10.55
2023-03-21T18:02:53.149Z,10.54
2023-03-21T18:05:21.604Z,10.44
2023-03-21T18:08:10.761Z,10.42
2023-03-21T18:10:39.272Z,10.23
2023-03-21T18:13:06.429Z,10.20
2023-03-21T18:15:33.011Z,10.16
2023-03-21T18:17:59.806Z,10.04
2023-03-21T18:20:49.934Z,9.97
2023-03-21T18:23:14.817Z,9.74
2023-03-21T18:25:41.701Z,9.61
2023-03-21T18:28:12.050Z,9.57
2023-03-21T18:31:04.842Z,9.58
2023-03-21T18:33:27.258Z,9.41
2023-03-21T18:35:58.666Z,9.29
2023-03-21T18:38:26.366Z,9.30
2023-03-21T18:40:52.856Z,9.32
2023-03-21T18:46:07.597Z,9.38
2023-03-21T18:48:35.770Z,9.34
2023-03-21T18:51:03.740Z,9.31
2023-03-21T18:53:30.407Z,9.20
2023-03-21T18:55:57.556Z,9.15
2023-03-21T18:58:25.512Z,9.24
2023-03-21T19:00:53.459Z,9.34
2023-03-21T19:03:34.351Z,9.32
2023-03-21T19:06:04.701Z,9.34
2023-03-21T19:08:31.825Z,9.32
2023-03-21T19:11:00.195Z,9.30
2023-03-21T19:13:30.424Z,9.23
2023-03-21T19:15:57.214Z,9.11
2023-03-21T19:18:41.644Z,9.13
2023-03-21T19:21:10.808Z,9.16
2023-03-21T19:24:07.860Z,9.26
2023-03-21T19:26:25.841Z,9.27
2023-03-21T19:28:53.682Z,9.40
2023-03-21T19:31:21.815Z,9.49
2023-03-21T19:33:48.669Z,9.53
2023-03-21T19:36:21.779Z,9.54
2023-03-21T19:38:49.092Z,9.54
2023-03-21T19:41:16.343Z,9.46
2023-03-21T19:43:53.147Z,9.40
2023-03-21T19:46:24.375Z,9.40
2023-03-21T19:48:56.230Z,9.40
2023-03-21T19:51:29.418Z,9.36
2023-03-21T19:54:03.232Z,9.27
2023-03-21T19:56:31.524Z,9.17
2023-03-21T19:58:59.058Z,9.19
2023-03-21T20:01:27.579Z,9.15
2023-03-21T20:03:54.524Z,9.08
2023-03-21T20:06:24.305Z,9.02
2023-03-21T20:11:39.942Z,9.00
2023-03-21T20:14:06.505Z,9.07
2023-03-21T20:16:35.873Z,9.16
2023-03-21T20:19:09.896Z,9.06
2023-03-21T20:21:47.716Z,9.03
2023-03-21T20:24:16.952Z,9.02
2023-03-21T20:26:45.766Z,9.09
2023-03-21T20:32:00.616Z,9.07
2023-03-21T20:34:28.466Z,9.09
2023-03-21T20:36:55.516Z,9.14
2023-03-21T20:39:22.370Z,9.17
2023-03-21T20:41:48.952Z,9.14
2023-03-21T20:47:05.453Z,9.08
2023-03-21T20:49:32.158Z,9.10
2023-03-21T20:54:45.617Z,8.92
2023-03-21T20:57:12.190Z,8.87
2023-03-21T20:59:39.240Z,8.87
2023-03-21T21:02:05.737Z,8.80
2023-03-21T21:04:49.840Z,8.67
2023-03-21T21:07:22.358Z,8.69
2023-03-21T21:09:50.133Z,8.68
2023-03-21T21:12:19.069Z,8.63
2023-03-21T21:14:45.861Z,8.53
2023-03-21T21:17:54.565Z,8.59
2023-03-21T21:20:01.574Z,8.44
2023-03-21T21:22:28.913Z,8.37
2023-03-21T21:24:55.454Z,8.43
2023-03-21T21:27:21.937Z,8.40
2023-03-21T21:29:50.156Z,8.33
2023-03-21T21:32:18.516Z,8.34
2023-03-21T21:34:45.601Z,8.33
2023-03-21T21:37:12.220Z,8.34
2023-03-21T21:39:40.092Z,8.30
2023-03-21T21:42:06.627Z,8.37
2023-03-21T21:44:33.327Z,8.42
2023-03-21T21:46:59.869Z,8.45
2023-03-21T21:49:27.831Z,8.50
2023-03-21T21:51:56.144Z,8.56
2023-03-21T21:54:22.664Z,8.55
2023-03-21T21:56:53.855Z,8.50
2023-03-21T21:59:21.934Z,8.51
2023-03-21T22:01:51.016Z,8.54
2023-03-21T22:04:18.104Z,8.49
2023-03-21T22:06:44.654Z,8.46
2023-03-21T22:09:11.222Z,8.50
2023-03-21T22:11:37.673Z,8.52
2023-03-21T22:14:04.150Z,8.50
2023-03-21T22:16:30.787Z,8.51
2023-03-21T22:18:57.270Z,8.47
2023-03-21T22:21:23.885Z,8.46
2023-03-21T22:23:50.509Z,8.43
2023-03-21T22:26:17.056Z,8.41
2023-03-21T22:28:43.729Z,8.36
2023-03-21T22:31:18.158Z,8.35
2023-03-21T22:33:45.384Z,8.27
2023-03-21T22:36:12.318Z,8.21
2023-03-21T22:38:38.987Z,8.17
2023-03-21T22:41:06.749Z,8.08
2023-03-21T22:43:35.110Z,8.12
2023-03-21T22:46:04.373Z,8.18
2023-03-21T22:48:31.409Z,8.22
2023-03-21T22:51:00.010Z,8.16
2023-03-21T22:53:26.802Z,8.20
2023-03-21T22:55:53.699Z,8.20
2023-03-21T22:58:20.992Z,8.17
2023-03-21T23:00:48.163Z,8.15
2023-03-21T23:03:16.716Z,8.13
2023-03-21T23:05:45.160Z,8.10
2023-03-21T23:08:12.783Z,8.04
2023-03-21T23:10:43.301Z,7.97
2023-03-21T23:13:10.066Z,7.88
2023-03-21T23:15:38.495Z,7.79
2023-03-21T23:18:06.335Z,7.75
2023-03-21T23:20:32.914Z,7.71
2023-03-21T23:22:59.477Z,7.66
2023-03-21T23:25:26.157Z,7.62
2023-03-21T23:27:52.708Z,7.63
2023-03-21T23:30:19.295Z,7.54
2023-03-21T23:32:45.880Z,7.52
2023-03-21T23:35:12.895Z,7.44
2023-03-21T23:37:42.305Z,7.44
2023-03-21T23:40:10.292Z,7.45
2023-03-21T23:42:36.913Z,7.48
2023-03-21T23:45:04.479Z,7.42
2023-03-21T23:47:31.005Z,7.39
2023-03-21T23:49:57.562Z,7.43
2023-03-21T23:52:24.175Z,7.41
2023-03-21T23:54:50.765Z,7.35
2023-03-21T23:57:17.900Z,7.33
2023-03-21T23:59:46.562Z,7.27
